Time;durP1;ratioP1;P1;durP2;ratioP2;P2;SDS_P1;SDS_P2;PMS_P1;PMS_P2;Temp;Humidity;BMP_temperature;BMP_pressure;BME280_temperature;BME280_humidity;BME280_pressure;Samples;Min_cycle;Max_cycle;Signal;HPM_P1;HPM_P2
2022/01/20 00:00:19;;;;;;;24.63;11.10;;;4.50;99.90;;;;;;5053396;28;20176;-66
2022/01/20 00:02:55;;;;;;;23.23;10.80;;;4.50;99.90;;;;;;5070970;28;20174;-67
2022/01/20 00:08:10;;;;;;;21.63;10.93;;;4.30;99.90;;;;;;5071209;28;20538;-67
2022/01/20 00:27:08;;;;;;;14.57;8.93;;;4.00;99.90;;;;;;5070852;28;20636;-67
2022/01/20 00:29:59;;;;;;;17.03;9.10;;;4.00;99.90;;;;;;5053430;28;20273;-66
2022/01/20 00:32:24;;;;;;;20.90;9.63;;;4.00;99.90;;;;;;5070418;28;20181;-67
2022/01/20 00:37:30;;;;;;;17.00;9.57;;;3.90;99.90;;;;;;5070906;28;20669;-66
2022/01/20 00:39:58;;;;;;;14.00;8.67;;;4.00;99.90;;;;;;5071265;28;20228;-66
2022/01/20 00:42:24;;;;;;;15.20;9.63;;;3.90;99.90;;;;;;5073582;28;20740;-66
2022/01/20 00:44:50;;;;;;;19.90;9.40;;;3.90;99.90;;;;;;5074628;28;20198;-67
2022/01/20 00:47:17;;;;;;;15.10;8.37;;;3.90;99.90;;;;;;5073983;28;20182;-66
2022/01/20 00:49:44;;;;;;;15.63;8.60;;;3.90;99.90;;;;;;5074624;28;20247;-67
2022/01/20 00:52:10;;;;;;;22.23;9.90;;;3.90;99.90;;;;;;5074227;28;20227;-67
2022/01/20 00:54:36;;;;;;;15.10;8.33;;;3.90;99.90;;;;;;5074139;28;20189;-67
2022/01/20 00:57:02;;;;;;;15.13;9.00;;;3.90;99.90;;;;;;5074459;28;20253;-66
2022/01/20 00:59:29;;;;;;;13.17;8.57;;;3.80;99.90;;;;;;5073895;28;20170;-67
2022/01/20 01:02:00;;;;;;;13.83;8.73;;;3.80;99.90;;;;;;5074840;28;20162;-64
2022/01/20 01:04:27;;;;;;;13.73;9.20;;;3.70;99.90;;;;;;5073908;28;20213;-67
2022/01/20 01:07:17;;;;;;;20.63;9.70;;;3.70;99.90;;;;;;5074442;28;20723;-66
2022/01/20 01:09:44;;;;;;;20.07;9.57;;;3.70;99.90;;;;;;5074008;28;20631;-67
2022/01/20 01:12:29;;;;;;;11.43;8.87;;;3.60;99.90;;;;;;5073991;28;20194;-67
2022/01/20 01:14:54;;;;;;;18.77;9.23;;;3.60;99.90;;;;;;5073993;28;20629;-66
2022/01/20 01:22:30;;;;;;;22.33;10.47;;;3.50;99.90;;;;;;5073544;28;20193;-67
2022/01/20 01:24:57;;;;;;;18.40;10.23;;;3.50;99.90;;;;;;5073993;28;20558;-67
2022/01/20 01:27:26;;;;;;;18.03;10.07;;;3.50;99.90;;;;;;5073582;28;20578;-66
2022/01/20 01:32:27;;;;;;;13.73;11.07;;;3.40;99.90;;;;;;5073382;28;20193;-67
2022/01/20 01:34:53;;;;;;;17.07;10.20;;;3.40;99.90;;;;;;5073938;28;20220;-67
2022/01/20 01:39:58;;;;;;;16.00;10.03;;;3.50;99.90;;;;;;5053713;28;20171;-67
2022/01/20 01:42:31;;;;;;;24.33;11.30;;;3.50;99.90;;;;;;5055449;28;20174;-67
2022/01/20 01:45:04;;;;;;;17.00;9.90;;;3.60;99.90;;;;;;5073584;28;20197;-67
2022/01/20 01:47:30;;;;;;;11.27;9.53;;;3.60;99.90;;;;;;5073295;28;20304;-66
2022/01/20 01:49:55;;;;;;;16.30;9.40;;;3.70;99.90;;;;;;5079491;28;20276;-67
2022/01/20 01:52:21;;;;;;;13.70;9.57;;;3.80;99.90;;;;;;5092887;28;20179;-67
2022/01/20 01:54:47;;;;;;;10.43;9.10;;;3.80;99.90;;;;;;5093677;28;20200;-67
2022/01/20 01:57:12;;;;;;;19.20;9.87;;;3.90;99.90;;;;;;5093932;28;20621;-67
2022/01/20 01:59:38;;;;;;;17.13;10.60;;;4.00;99.90;;;;;;5074677;28;20213;-65
2022/01/20 02:02:04;;;;;;;14.30;10.00;;;4.10;99.90;;;;;;5072361;28;20166;-66
2022/01/20 02:04:29;;;;;;;13.83;9.70;;;4.10;99.90;;;;;;5072648;28;20213;-67
2022/01/20 02:07:28;;;;;;;24.90;10.43;;;4.20;99.90;;;;;;5073284;28;20532;-67
2022/01/20 02:17:50;;;;;;;15.67;9.73;;;4.20;99.90;;;;;;5071436;28;20635;-67
2022/01/20 02:18:12;;;;;;;31.47;10.17;;;4.30;99.90;;;;;;5072883;28;20197;-66
2022/01/20 02:20:38;;;;;;;17.50;10.27;;;4.30;99.90;;;;;;5072007;28;20181;-65
2022/01/20 02:23:04;;;;;;;14.27;8.63;;;4.30;99.90;;;;;;5071851;28;20193;-67
2022/01/20 02:25:34;;;;;;;15.73;9.73;;;4.30;99.90;;;;;;5072663;28;20198;-66
2022/01/20 02:28:03;;;;;;;10.87;8.27;;;4.30;99.90;;;;;;5072490;28;20542;-66
2022/01/20 02:30:29;;;;;;;12.97;9.07;;;4.30;99.90;;;;;;5072871;28;20293;-67
2022/01/20 02:33:00;;;;;;;18.37;9.10;;;4.20;99.90;;;;;;5072296;28;20201;-67
2022/01/20 02:35:28;;;;;;;19.90;9.73;;;4.20;99.90;;;;;;5052922;28;20191;-66
2022/01/20 02:38:04;;;;;;;23.67;9.60;;;4.10;99.90;;;;;;5052471;28;20177;-67
2022/01/20 02:45:42;;;;;;;15.87;8.63;;;4.10;99.90;;;;;;5052676;28;20206;-66
2022/01/20 02:48:08;;;;;;;15.03;7.93;;;4.10;99.90;;;;;;5054433;28;20175;-66
2022/01/20 02:50:34;;;;;;;8.73;7.90;;;4.10;99.90;;;;;;5072431;28;20202;-66
2022/01/20 02:52:59;;;;;;;17.23;8.63;;;4.10;99.90;;;;;;5071993;28;20170;-66
2022/01/20 02:55:25;;;;;;;9.17;8.00;;;4.00;99.90;;;;;;5034322;28;20249;-66
2022/01/20 02:57:51;;;;;;;9.37;7.03;;;4.00;99.90;;;;;;5052339;28;20253;-66
2022/01/20 03:00:16;;;;;;;16.27;8.10;;;4.00;99.90;;;;;;5070557;28;20185;-66
2022/01/20 03:02:43;;;;;;;18.60;9.40;;;4.10;99.90;;;;;;5071258;28;20243;-66
2022/01/20 03:05:11;;;;;;;15.33;8.80;;;4.00;99.90;;;;;;5071285;28;20290;-66
2022/01/20 03:07:37;;;;;;;7.67;7.07;;;4.00;99.90;;;;;;5054279;28;20645;-66
2022/01/20 03:10:07;;;;;;;19.07;7.83;;;3.90;99.90;;;;;;5071953;28;20197;-67
2022/01/20 03:12:33;;;;;;;8.93;8.23;;;3.90;99.90;;;;;;5071421;28;20185;-67
2022/01/20 03:14:59;;;;;;;8.77;7.90;;;3.90;99.90;;;;;;5070309;28;20247;-65
2022/01/20 03:17:25;;;;;;;8.03;7.40;;;3.90;99.90;;;;;;5071610;28;20280;-67
2022/01/20 03:19:51;;;;;;;9.40;7.97;;;3.90;99.90;;;;;;5071970;28;20669;-66
2022/01/20 03:22:16;;;;;;;15.17;8.90;;;3.90;99.90;;;;;;5071631;28;20635;-65
2022/01/20 03:24:42;;;;;;;18.57;8.67;;;3.90;99.90;;;;;;5070480;28;20216;-64
2022/01/20 03:27:08;;;;;;;16.80;9.80;;;3.90;99.90;;;;;;5071481;28;20193;-66
2022/01/20 03:29:34;;;;;;;7.57;7.20;;;3.90;99.90;;;;;;5070937;28;20178;-66
2022/01/20 03:32:00;;;;;;;7.93;7.13;;;3.90;99.90;;;;;;5071604;28;20249;-66
2022/01/20 03:34:26;;;;;;;8.80;6.93;;;4.00;99.90;;;;;;5071275;28;20190;-66
2022/01/20 03:36:52;;;;;;;8.60;7.80;;;4.00;99.90;;;;;;5071799;28;20166;-66
2022/01/20 03:39:20;;;;;;;7.80;7.37;;;4.10;99.90;;;;;;5071471;28;20171;-66
2022/01/20 03:41:46;;;;;;;11.40;8.33;;;4.20;99.90;;;;;;5071791;28;20174;-65
2022/01/20 03:44:11;;;;;;;13.40;8.20;;;4.20;99.90;;;;;;5071122;28;20198;-66
2022/01/20 03:46:37;;;;;;;8.53;7.73;;;4.30;99.90;;;;;;5071717;28;20181;-66
2022/01/20 03:49:24;;;;;;;9.83;8.03;;;4.30;99.90;;;;;;5071520;28;20224;-66
2022/01/20 03:51:50;;;;;;;13.63;8.40;;;4.40;99.90;;;;;;5071473;28;20608;-66
2022/01/20 03:54:16;;;;;;;8.47;7.57;;;4.40;99.90;;;;;;5070945;28;20255;-66
2022/01/20 03:56:41;;;;;;;14.70;9.40;;;4.40;99.90;;;;;;5071548;28;20245;-66
2022/01/20 03:59:07;;;;;;;8.60;7.57;;;4.40;99.90;;;;;;5071402;28;20174;-67
2022/01/20 04:01:32;;;;;;;12.53;7.90;;;4.30;99.90;;;;;;5071024;28;20178;-66
2022/01/20 04:06:28;;;;;;;13.13;7.43;;;4.10;99.90;;;;;;5049117;28;20206;-66
2022/01/20 04:08:54;;;;;;;20.77;12.33;;;4.00;99.90;;;;;;5049894;28;20171;-65
2022/01/20 04:11:25;;;;;;;10.33;8.97;;;3.80;99.90;;;;;;5045420;28;20235;-67
2022/01/20 04:13:51;;;;;;;12.00;8.97;;;3.80;99.90;;;;;;5031108;28;20226;-65
2022/01/20 04:16:24;;;;;;;9.10;8.33;;;3.70;99.90;;;;;;5038995;28;20258;-65
2022/01/20 04:18:56;;;;;;;12.33;7.87;;;3.60;99.90;;;;;;5054147;28;20167;-67
2022/01/20 04:21:27;;;;;;;16.63;8.57;;;3.70;99.90;;;;;;5054729;28;20651;-66
2022/01/20 04:23:54;;;;;;;8.77;7.97;;;3.70;99.90;;;;;;5054782;28;20175;-66
2022/01/20 04:26:20;;;;;;;8.50;7.80;;;3.80;99.90;;;;;;5054620;28;20186;-65
2022/01/20 04:28:46;;;;;;;15.47;8.87;;;3.80;99.90;;;;;;5054845;28;20633;-67
2022/01/20 04:31:12;;;;;;;9.03;8.23;;;3.90;99.90;;;;;;5054586;28;20209;-66
2022/01/20 04:33:38;;;;;;;10.23;8.07;;;3.90;99.90;;;;;;5054853;28;20175;-66
2022/01/20 04:36:05;;;;;;;7.80;7.30;;;4.00;99.90;;;;;;5054681;28;20236;-67
2022/01/20 04:38:31;;;;;;;13.93;8.67;;;4.00;99.90;;;;;;5053298;28;20193;-66
2022/01/20 04:40:57;;;;;;;6.80;6.47;;;4.10;99.90;;;;;;5055053;28;20688;-66
2022/01/20 04:43:24;;;;;;;8.80;8.00;;;4.10;99.90;;;;;;5053957;28;20179;-67
2022/01/20 04:46:02;;;;;;;8.27;7.57;;;4.10;99.90;;;;;;5054757;28;20187;-67
2022/01/20 04:59:08;;;;;;;9.63;7.50;;;4.00;99.90;;;;;;5034478;28;20305;-66
2022/01/20 05:01:34;;;;;;;12.17;7.93;;;4.00;99.90;;;;;;5041154;28;20603;-66
2022/01/20 05:04:02;;;;;;;13.07;8.40;;;4.00;99.90;;;;;;5054057;28;20249;-67
2022/01/20 05:06:28;;;;;;;8.50;8.03;;;4.00;99.90;;;;;;5054041;28;20189;-66
2022/01/20 05:08:53;;;;;;;9.13;7.73;;;4.10;99.90;;;;;;5054180;28;20171;-66
2022/01/20 05:11:19;;;;;;;9.30;7.97;;;4.10;99.90;;;;;;5053934;28;20671;-67
2022/01/20 05:13:45;;;;;;;9.17;7.97;;;4.10;99.90;;;;;;5053887;28;20221;-66
2022/01/20 05:16:11;;;;;;;9.43;8.50;;;4.10;99.90;;;;;;5053859;28;20175;-67
2022/01/20 05:18:37;;;;;;;8.77;7.97;;;4.10;99.90;;;;;;5054071;28;20178;-67
2022/01/20 05:21:02;;;;;;;11.33;8.03;;;4.10;99.90;;;;;;5053928;28;20170;-67
2022/01/20 05:23:28;;;;;;;8.93;8.37;;;4.10;99.90;;;;;;5052226;28;20181;-66
2022/01/20 05:25:54;;;;;;;9.53;7.73;;;4.20;99.90;;;;;;5053517;28;20199;-66
2022/01/20 05:28:19;;;;;;;7.70;7.13;;;4.20;99.90;;;;;;5053026;28;20202;-66
2022/01/20 05:30:45;;;;;;;11.20;8.93;;;4.10;99.90;;;;;;5053404;28;20562;-67
2022/01/20 05:33:11;;;;;;;8.20;7.50;;;4.10;99.90;;;;;;5052261;28;20270;-66
2022/01/20 05:35:37;;;;;;;8.13;7.53;;;4.10;99.90;;;;;;5052948;28;20226;-66
2022/01/20 05:38:03;;;;;;;8.67;7.63;;;4.00;99.90;;;;;;5052300;28;20183;-67
2022/01/20 05:40:29;;;;;;;8.23;7.50;;;3.90;99.90;;;;;;5053406;28;20182;-66
2022/01/20 05:42:55;;;;;;;7.60;7.10;;;3.90;99.90;;;;;;5053399;28;20550;-65
2022/01/20 05:45:21;;;;;;;8.33;7.70;;;3.80;99.90;;;;;;5052906;28;20259;-65
2022/01/20 05:47:49;;;;;;;8.63;7.77;;;3.70;99.90;;;;;;5053564;28;20254;-66
2022/01/20 05:50:18;;;;;;;7.83;7.33;;;3.70;99.90;;;;;;5053402;28;20238;-67
2022/01/20 05:52:45;;;;;;;10.67;7.60;;;3.70;99.90;;;;;;5053201;28;20163;-66
2022/01/20 05:55:17;;;;;;;8.00;7.50;;;3.70;99.90;;;;;;5051754;28;20280;-67
2022/01/20 05:57:43;;;;;;;7.50;7.10;;;3.70;99.90;;;;;;5051934;28;20782;-66
2022/01/20 06:00:13;;;;;;;6.77;6.33;;;3.70;99.90;;;;;;5053433;28;20167;-66
2022/01/20 06:05:24;;;;;;;7.83;7.37;;;3.90;99.90;;;;;;5053148;28;20268;-66
2022/01/20 06:07:49;;;;;;;7.47;6.93;;;3.90;99.90;;;;;;5053141;28;20262;-65
2022/01/20 06:10:15;;;;;;;9.23;7.57;;;3.90;99.90;;;;;;5053004;28;20194;-67
2022/01/20 06:12:41;;;;;;;7.93;7.43;;;3.90;99.90;;;;;;5052560;28;20179;-67
2022/01/20 06:15:07;;;;;;;7.83;7.23;;;3.90;99.90;;;;;;5053266;28;20194;-66
2022/01/20 06:17:36;;;;;;;7.97;7.37;;;3.90;99.90;;;;;;5052652;28;20191;-65
2022/01/20 06:20:02;;;;;;;7.93;7.50;;;3.90;99.90;;;;;;5053021;28;20241;-66
2022/01/20 06:22:27;;;;;;;10.63;7.33;;;3.80;99.90;;;;;;5052403;28;20249;-67
2022/01/20 06:24:53;;;;;;;7.40;7.00;;;3.80;99.90;;;;;;5052265;28;20294;-66
2022/01/20 06:27:19;;;;;;;10.30;8.77;;;3.80;99.90;;;;;;5052621;28;20674;-65
2022/01/20 06:29:46;;;;;;;8.73;7.00;;;3.80;99.90;;;;;;5051141;28;20236;-66
2022/01/20 06:32:11;;;;;;;8.60;6.83;;;3.80;99.90;;;;;;5051040;28;20588;-65
2022/01/20 06:34:37;;;;;;;8.40;7.50;;;3.90;99.90;;;;;;5052631;28;20260;-65
2022/01/20 06:37:03;;;;;;;8.33;7.67;;;3.90;99.90;;;;;;5067121;28;20199;-66
2022/01/20 06:39:28;;;;;;;7.37;6.73;;;3.90;99.90;;;;;;5070703;28;20182;-66
2022/01/20 06:41:54;;;;;;;7.27;6.87;;;3.90;99.90;;;;;;5058562;28;20174;-68
2022/01/20 06:44:21;;;;;;;8.93;8.10;;;3.90;99.90;;;;;;5050749;28;20198;-67
2022/01/20 06:46:48;;;;;;;7.97;7.27;;;3.80;99.90;;;;;;5052538;28;20194;-66
2022/01/20 06:49:14;;;;;;;9.13;8.23;;;3.70;99.90;;;;;;5052105;28;20199;-66
2022/01/20 06:51:40;;;;;;;8.33;7.50;;;3.60;99.90;;;;;;5050752;28;20571;-67
2022/01/20 06:54:06;;;;;;;8.13;7.43;;;3.60;99.90;;;;;;5051952;28;20189;-67
2022/01/20 06:56:31;;;;;;;9.53;8.93;;;3.50;99.90;;;;;;5052267;28;20166;-67
2022/01/20 06:58:58;;;;;;;9.03;8.20;;;3.40;99.90;;;;;;5050007;28;20178;-67
2022/01/20 07:01:23;;;;;;;9.53;8.70;;;3.40;99.90;;;;;;5051844;28;20178;-66
2022/01/20 07:03:49;;;;;;;9.10;8.50;;;3.30;99.90;;;;;;5051766;28;20167;-67
2022/01/20 07:06:15;;;;;;;9.67;8.77;;;3.30;99.90;;;;;;5051757;28;20277;-66
2022/01/20 07:08:40;;;;;;;8.83;8.13;;;3.30;99.90;;;;;;5052068;28;20210;-66
2022/01/20 07:11:06;;;;;;;13.73;9.33;;;3.30;99.90;;;;;;5051929;28;20198;-66
2022/01/20 07:13:32;;;;;;;8.80;8.20;;;3.40;99.90;;;;;;5051455;28;20220;-66
2022/01/20 07:15:57;;;;;;;8.50;7.90;;;3.40;99.90;;;;;;5051870;28;20190;-66
2022/01/20 07:18:23;;;;;;;11.10;8.50;;;3.40;99.90;;;;;;5051759;28;20163;-66
2022/01/20 07:20:48;;;;;;;9.10;8.27;;;3.40;99.90;;;;;;5051919;28;20258;-64
2022/01/20 07:23:14;;;;;;;9.80;8.90;;;3.40;99.90;;;;;;5051381;28;20171;-65
2022/01/20 07:25:40;;;;;;;9.03;8.20;;;3.40;99.90;;;;;;5051694;28;20671;-66
2022/01/20 07:28:05;;;;;;;8.63;7.87;;;3.40;99.90;;;;;;5051715;28;20633;-67
2022/01/20 07:30:31;;;;;;;8.90;8.40;;;3.40;99.90;;;;;;5051679;28;20342;-67
2022/01/20 07:32:58;;;;;;;11.20;8.50;;;3.50;99.90;;;;;;5051384;28;20171;-67
2022/01/20 07:35:24;;;;;;;12.20;8.60;;;3.50;99.90;;;;;;5051213;28;20213;-66
2022/01/20 07:37:49;;;;;;;8.30;7.73;;;3.50;99.90;;;;;;5051156;28;20648;-66
2022/01/20 07:40:15;;;;;;;11.10;8.90;;;3.50;99.90;;;;;;5051259;28;20574;-67
2022/01/20 07:42:41;;;;;;;9.70;8.70;;;3.40;99.90;;;;;;5051123;28;20686;-67
2022/01/20 07:45:06;;;;;;;8.23;7.47;;;3.30;99.90;;;;;;5051089;28;20198;-66
2022/01/20 07:47:32;;;;;;;9.20;7.53;;;3.30;99.90;;;;;;5049818;28;20175;-66
2022/01/20 07:49:58;;;;;;;13.93;8.33;;;3.30;99.90;;;;;;5050508;28;20615;-67
2022/01/20 07:52:23;;;;;;;8.00;7.23;;;3.30;99.90;;;;;;5050863;28;20175;-65
2022/01/20 07:54:49;;;;;;;8.73;7.90;;;3.20;99.90;;;;;;5051098;28;20253;-66
2022/01/20 07:57:15;;;;;;;9.37;8.67;;;3.30;99.90;;;;;;5051344;28;20197;-67
2022/01/20 07:59:40;;;;;;;10.70;7.57;;;3.30;99.90;;;;;;5050883;28;20183;-66
2022/01/20 08:02:06;;;;;;;8.13;7.27;;;3.30;99.90;;;;;;5049328;28;20170;-65
2022/01/20 08:04:32;;;;;;;8.40;7.40;;;3.40;99.90;;;;;;5049726;28;20242;-65
2022/01/20 08:06:57;;;;;;;8.83;8.00;;;3.30;99.90;;;;;;5049917;28;20187;-66
2022/01/20 08:09:23;;;;;;;10.80;9.53;;;3.30;99.90;;;;;;5049515;28;20217;-67
2022/01/20 08:11:50;;;;;;;9.30;8.43;;;3.20;99.90;;;;;;5049929;28;20209;-68
2022/01/20 08:14:15;;;;;;;9.00;8.50;;;3.20;99.90;;;;;;5050745;28;20194;-67
2022/01/20 08:16:41;;;;;;;25.13;10.10;;;3.20;99.90;;;;;;5050802;28;20365;-66
2022/01/20 08:19:07;;;;;;;9.80;9.03;;;3.20;99.90;;;;;;5051004;28;20186;-67
2022/01/20 08:21:33;;;;;;;12.33;8.53;;;3.30;99.90;;;;;;5050214;28;20183;-68
2022/01/20 08:23:58;;;;;;;8.17;7.33;;;3.30;99.90;;;;;;5050200;28;20187;-67
2022/01/20 08:26:24;;;;;;;10.93;9.10;;;3.40;99.90;;;;;;5050681;28;20183;-68
2022/01/20 08:28:50;;;;;;;9.17;8.57;;;3.50;99.90;;;;;;5050854;28;20175;-66
2022/01/20 08:31:15;;;;;;;9.50;7.37;;;3.60;99.90;;;;;;5049167;28;20238;-66
2022/01/20 08:33:41;;;;;;;14.10;7.87;;;3.70;99.90;;;;;;5050353;28;20410;-67
2022/01/20 08:36:07;;;;;;;8.10;7.00;;;3.70;99.90;;;;;;5050786;28;20256;-67
2022/01/20 08:38:32;;;;;;;14.07;7.17;;;3.70;99.90;;;;;;5050446;28;20182;-66
2022/01/20 08:40:58;;;;;;;17.60;7.77;;;3.70;99.90;;;;;;5049425;28;20274;-66
2022/01/20 08:43:24;;;;;;;11.63;7.77;;;3.80;99.90;;;;;;5048321;28;20716;-67
2022/01/20 08:45:50;;;;;;;8.10;7.30;;;3.90;99.90;;;;;;5049519;28;20290;-65
2022/01/20 08:48:16;;;;;;;12.10;7.77;;;4.00;99.90;;;;;;5050476;28;20441;-67
2022/01/20 08:50:43;;;;;;;10.83;7.73;;;4.10;99.90;;;;;;5050733;28;20209;-67
2022/01/20 08:53:09;;;;;;;9.43;7.57;;;4.00;99.90;;;;;;5050026;28;20182;-67
2022/01/20 08:55:36;;;;;;;13.67;8.07;;;4.00;99.90;;;;;;5050301;28;20274;-67
2022/01/20 08:58:03;;;;;;;10.17;7.80;;;3.90;99.90;;;;;;5050463;28;20163;-67
2022/01/20 09:00:31;;;;;;;11.77;8.73;;;3.80;99.90;;;;;;5050175;28;20636;-67
2022/01/20 09:02:57;;;;;;;15.27;8.03;;;3.80;99.90;;;;;;5052799;28;20173;-67
2022/01/20 09:05:23;;;;;;;9.03;8.13;;;4.10;99.90;;;;;;5052189;28;20237;-67
2022/01/20 09:07:49;;;;;;;9.17;7.40;;;4.60;99.90;;;;;;5054439;28;20186;-67
2022/01/20 09:10:19;;;;;;;10.93;6.90;;;5.10;99.90;;;;;;5054050;28;20244;-67
2022/01/20 09:15:28;;;;;;;7.90;7.20;;;5.70;99.90;;;;;;5053484;28;20209;-66
2022/01/20 09:18:00;;;;;;;7.70;6.97;;;5.40;99.90;;;;;;5052732;28;20182;-67
2022/01/20 09:20:26;;;;;;;11.57;7.00;;;5.10;99.90;;;;;;5053786;28;20231;-68
2022/01/20 09:22:54;;;;;;;7.20;6.67;;;4.70;99.90;;;;;;5053490;28;20220;-67
2022/01/20 09:25:21;;;;;;;7.57;6.97;;;4.40;99.90;;;;;;5052096;28;20232;-67
2022/01/20 09:27:47;;;;;;;7.40;7.00;;;4.30;99.90;;;;;;5053555;28;20220;-67
2022/01/20 09:30:18;;;;;;;7.30;7.00;;;4.20;99.90;;;;;;5052218;28;20246;-68
2022/01/20 09:32:56;;;;;;;6.63;6.27;;;4.20;99.90;;;;;;5053445;28;20167;-66
2022/01/20 09:35:22;;;;;;;8.53;7.83;;;4.20;99.90;;;;;;5053186;28;20244;-66
2022/01/20 09:37:48;;;;;;;7.47;6.67;;;4.10;99.90;;;;;;5052156;28;20170;-66
2022/01/20 09:40:13;;;;;;;7.73;7.00;;;4.10;99.90;;;;;;5053108;28;20182;-66
2022/01/20 09:42:39;;;;;;;8.20;7.60;;;4.00;99.90;;;;;;5053329;28;20210;-67
2022/01/20 09:45:05;;;;;;;7.83;7.27;;;4.00;99.90;;;;;;5053133;28;20280;-67
2022/01/20 09:47:31;;;;;;;7.60;7.10;;;4.10;99.90;;;;;;5051786;28;20214;-67
2022/01/20 09:49:56;;;;;;;9.13;7.30;;;4.20;99.90;;;;;;5052265;28;20664;-67
2022/01/20 09:52:24;;;;;;;9.90;7.10;;;4.40;99.90;;;;;;5053035;28;20170;-66
2022/01/20 09:54:49;;;;;;;6.80;6.47;;;4.70;99.90;;;;;;5053025;28;20183;-67
2022/01/20 09:57:15;;;;;;;6.50;6.20;;;5.10;99.90;;;;;;5053403;28;20702;-67
2022/01/20 09:59:41;;;;;;;6.70;6.20;;;5.40;99.90;;;;;;5053074;28;20171;-68
2022/01/20 10:02:17;;;;;;;10.10;6.40;;;5.60;99.90;;;;;;5050939;28;20248;-67
2022/01/20 10:04:43;;;;;;;6.90;6.27;;;5.60;99.90;;;;;;5053187;28;20548;-68
2022/01/20 10:07:12;;;;;;;7.27;6.83;;;5.50;99.90;;;;;;5051450;28;20224;-67
2022/01/20 10:09:40;;;;;;;7.33;6.93;;;5.40;99.90;;;;;;5052817;28;20236;-68
2022/01/20 10:12:09;;;;;;;7.00;6.40;;;5.50;99.90;;;;;;5052511;28;20301;-67
2022/01/20 10:14:43;;;;;;;6.63;6.13;;;5.60;99.90;;;;;;5052915;28;20606;-67
2022/01/20 10:17:22;;;;;;;6.93;6.43;;;5.50;99.90;;;;;;5051358;28;20228;-68
2022/01/20 10:19:57;;;;;;;6.70;6.30;;;5.20;99.90;;;;;;5052980;28;20670;-67
2022/01/20 10:22:24;;;;;;;7.43;7.00;;;4.90;99.90;;;;;;5052347;28;20269;-67
2022/01/20 10:25:05;;;;;;;7.57;7.13;;;4.50;99.90;;;;;;5053007;28;20214;-68
2022/01/20 10:27:33;;;;;;;9.93;7.03;;;4.40;99.90;;;;;;5048418;28;20194;-66
2022/01/20 10:30:08;;;;;;;7.00;6.60;;;4.30;99.90;;;;;;5046996;28;20578;-67
2022/01/20 10:33:01;;;;;;;7.80;7.00;;;4.30;99.90;;;;;;5052596;28;20249;-67
2022/01/20 10:35:36;;;;;;;7.97;7.17;;;4.30;99.90;;;;;;5049340;28;20214;-67
2022/01/20 10:38:12;;;;;;;7.53;6.83;;;4.20;99.90;;;;;;5052482;28;20240;-65
2022/01/20 10:40:46;;;;;;;15.87;7.67;;;4.10;99.90;;;;;;5052760;28;20702;-67
2022/01/20 10:43:29;;;;;;;8.83;8.20;;;4.10;99.90;;;;;;5070701;28;20178;-65
2022/01/20 10:46:06;;;;;;;14.50;7.00;;;4.00;99.90;;;;;;5070967;28;20275;-66
2022/01/20 10:48:32;;;;;;;8.53;7.30;;;4.00;99.90;;;;;;5032346;28;20178;-67
2022/01/20 10:50:58;;;;;;;8.07;7.57;;;4.00;99.90;;;;;;5041315;28;20198;-66
2022/01/20 10:53:25;;;;;;;11.23;7.53;;;3.80;99.90;;;;;;5060528;28;20216;-66
2022/01/20 10:55:51;;;;;;;7.93;7.27;;;3.70;99.90;;;;;;5072047;28;20214;-66
2022/01/20 10:58:23;;;;;;;7.70;7.00;;;3.70;99.90;;;;;;5072118;28;20170;-66
2022/01/20 11:00:53;;;;;;;15.73;8.90;;;3.90;99.90;;;;;;5072475;28;20665;-66
2022/01/20 11:03:20;;;;;;;7.47;6.83;;;4.00;99.90;;;;;;5071822;28;20249;-66
2022/01/20 11:05:50;;;;;;;7.50;6.80;;;4.10;99.90;;;;;;5071576;28;20689;-66
2022/01/20 11:08:17;;;;;;;7.57;6.87;;;4.20;99.90;;;;;;5071675;28;20170;-66
2022/01/20 11:10:44;;;;;;;7.60;6.90;;;4.20;99.90;;;;;;5071446;28;20193;-65
2022/01/20 11:13:11;;;;;;;8.33;7.53;;;4.20;99.90;;;;;;5070304;28;20181;-66
2022/01/20 11:15:38;;;;;;;12.17;7.17;;;4.20;99.90;;;;;;5071648;28;20193;-65
2022/01/20 11:18:05;;;;;;;15.40;8.50;;;4.20;99.90;;;;;;5071906;28;20215;-66
2022/01/20 11:20:49;;;;;;;10.37;7.40;;;4.10;99.90;;;;;;5071822;28;20530;-66
2022/01/20 11:23:15;;;;;;;9.00;7.40;;;3.70;99.90;;;;;;5071522;28;20177;-66
2022/01/20 11:25:43;;;;;;;8.30;7.57;;;3.60;99.90;;;;;;5070930;28;20190;-66
2022/01/20 11:28:16;;;;;;;7.30;7.00;;;3.50;99.90;;;;;;5071735;28;20176;-66
2022/01/20 11:31:00;;;;;;;7.73;7.07;;;3.60;99.90;;;;;;5071618;28;20201;-67
2022/01/20 11:33:34;;;;;;;8.50;7.63;;;3.60;99.90;;;;;;5071431;28;20174;-67
2022/01/20 11:35:59;;;;;;;8.77;8.03;;;3.50;99.90;;;;;;5071691;28;20182;-66
2022/01/20 11:39:01;;;;;;;9.57;8.60;;;3.50;99.90;;;;;;5071499;28;20219;-66
2022/01/20 11:41:53;;;;;;;9.17;8.63;;;3.50;99.90;;;;;;5053510;28;20193;-67
2022/01/20 11:44:31;;;;;;;8.80;8.10;;;3.50;99.90;;;;;;5069976;28;20284;-67
2022/01/20 11:47:08;;;;;;;9.60;7.73;;;3.50;99.90;;;;;;5071666;28;20176;-66
2022/01/20 11:49:39;;;;;;;9.27;8.20;;;3.50;99.90;;;;;;5071506;28;20184;-68
2022/01/20 11:52:05;;;;;;;10.70;7.73;;;3.30;99.90;;;;;;5071611;28;20444;-68
2022/01/20 11:54:41;;;;;;;9.70;8.90;;;3.30;99.90;;;;;;5071210;28;20190;-68
2022/01/20 11:57:15;;;;;;;6.70;6.30;;;3.50;99.90;;;;;;5070202;28;20169;-66
2022/01/20 11:59:42;;;;;;;8.20;7.27;;;3.90;99.90;;;;;;5071230;28;20533;-66
2022/01/20 12:02:08;;;;;;;10.33;7.67;;;4.40;99.90;;;;;;5071129;28;20168;-66
2022/01/20 12:04:36;;;;;;;8.00;6.20;;;4.80;99.90;;;;;;5070969;28;20743;-66
2022/01/20 12:07:04;;;;;;;10.53;6.90;;;5.10;99.90;;;;;;5071327;28;20197;-66
2022/01/20 12:09:35;;;;;;;6.20;5.90;;;5.30;99.90;;;;;;5068767;28;20182;-66
2022/01/20 12:12:02;;;;;;;12.17;6.80;;;5.40;99.90;;;;;;5070998;28;20209;-66
2022/01/20 12:14:36;;;;;;;10.37;6.93;;;5.60;99.90;;;;;;5069840;28;20288;-65
2022/01/20 12:17:09;;;;;;;8.83;6.80;;;5.80;99.90;;;;;;5071226;28;20162;-65
2022/01/20 12:19:35;;;;;;;10.17;7.40;;;6.00;99.90;;;;;;5071061;28;20181;-65
2022/01/20 12:22:03;;;;;;;8.43;7.33;;;6.20;99.90;;;;;;5070949;28;20174;-65
2022/01/20 12:24:29;;;;;;;7.70;7.00;;;6.40;99.90;;;;;;5070984;28;20733;-65
2022/01/20 12:26:56;;;;;;;8.93;7.10;;;6.40;99.90;;;;;;5071223;28;20179;-65
2022/01/20 12:29:31;;;;;;;7.90;7.17;;;6.50;99.90;;;;;;5070827;28;20219;-65
2022/01/20 12:31:57;;;;;;;7.57;6.97;;;6.80;99.90;;;;;;5070699;28;20242;-65
2022/01/20 12:34:23;;;;;;;7.70;6.50;;;6.90;99.90;;;;;;5071148;28;20187;-65
2022/01/20 12:36:53;;;;;;;9.47;7.93;;;6.60;99.90;;;;;;5073470;28;20179;-65
2022/01/20 12:39:29;;;;;;;8.50;7.23;;;6.50;99.90;;;;;;5074885;28;20305;-65
2022/01/20 12:42:09;;;;;;;12.83;7.37;;;6.90;99.90;;;;;;5073547;28;20181;-65
2022/01/20 12:44:48;;;;;;;8.60;7.90;;;6.90;99.90;;;;;;5074676;28;20212;-65
2022/01/20 12:47:16;;;;;;;14.77;8.50;;;6.60;99.90;;;;;;5074526;28;20172;-65
2022/01/20 12:49:41;;;;;;;10.03;8.57;;;6.50;99.90;;;;;;5074490;28;20178;-65
2022/01/20 12:52:08;;;;;;;18.77;8.13;;;6.40;99.90;;;;;;5074209;28;20254;-65
2022/01/20 12:54:34;;;;;;;7.47;6.97;;;6.20;99.90;;;;;;5074492;28;20620;-65
2022/01/20 12:57:06;;;;;;;8.03;7.27;;;5.90;99.90;;;;;;5074537;28;20567;-65
2022/01/20 12:59:38;;;;;;;8.97;7.33;;;5.80;99.90;;;;;;5074324;28;20185;-67
2022/01/20 13:02:11;;;;;;;7.73;7.30;;;5.80;99.90;;;;;;5074196;28;20232;-65
2022/01/20 13:04:37;;;;;;;7.87;7.10;;;5.80;99.90;;;;;;5074169;28;20600;-65
2022/01/20 13:07:08;;;;;;;10.80;7.57;;;5.80;99.90;;;;;;5074332;28;20181;-65
2022/01/20 13:09:38;;;;;;;10.80;6.70;;;5.80;99.90;;;;;;5073240;28;20639;-67
2022/01/20 13:12:04;;;;;;;9.93;7.40;;;5.80;99.90;;;;;;5073939;28;20565;-65
2022/01/20 13:14:39;;;;;;;7.63;6.97;;;5.90;99.90;;;;;;5073878;28;20197;-65
2022/01/20 13:17:07;;;;;;;13.13;7.57;;;6.00;99.90;;;;;;5074259;28;20631;-65
2022/01/20 13:19:34;;;;;;;7.63;6.80;;;6.20;99.90;;;;;;5074464;28;20508;-66
2022/01/20 13:22:00;;;;;;;7.83;7.27;;;6.20;99.90;;;;;;5073931;28;20185;-65
2022/01/20 13:24:28;;;;;;;16.97;7.00;;;6.20;99.90;;;;;;5055356;28;20249;-67
2022/01/20 13:26:55;;;;;;;8.00;7.30;;;6.20;99.90;;;;;;5065760;28;20178;-66
2022/01/20 13:29:23;;;;;;;8.67;7.53;;;6.20;99.90;;;;;;5073841;28;20589;-67
2022/01/20 13:31:55;;;;;;;7.40;6.67;;;6.10;99.90;;;;;;5073548;28;20198;-66
2022/01/20 13:34:21;;;;;;;6.90;6.40;;;6.00;99.90;;;;;;5062440;28;20190;-66
2022/01/20 13:36:52;;;;;;;10.23;7.60;;;5.90;99.90;;;;;;5051333;28;20171;-67
2022/01/20 13:39:35;;;;;;;8.67;7.27;;;5.60;99.90;;;;;;5053411;28;20179;-65
2022/01/20 13:42:06;;;;;;;8.20;7.47;;;5.40;99.90;;;;;;5053433;28;20189;-66
2022/01/20 13:47:16;;;;;;;9.77;7.23;;;5.10;99.90;;;;;;5034378;28;20182;-67
2022/01/20 13:49:53;;;;;;;8.60;6.80;;;5.00;99.90;;;;;;5053402;28;20262;-64
2022/01/20 13:52:20;;;;;;;7.40;6.80;;;4.90;99.90;;;;;;5050019;28;20640;-67
2022/01/20 13:54:46;;;;;;;7.60;6.87;;;4.80;99.90;;;;;;5053293;28;20194;-67
2022/01/20 13:57:11;;;;;;;7.47;6.87;;;4.70;99.90;;;;;;5052760;28;20566;-66
2022/01/20 13:59:54;;;;;;;7.70;7.10;;;4.70;99.90;;;;;;5053281;28;20175;-65
2022/01/20 14:02:25;;;;;;;9.03;7.03;;;4.70;99.90;;;;;;5051262;28;20690;-67